createdAt,value
2022-10-15T00:01:39.208Z,2.40
2022-10-15T00:03:42.587Z,2.10
2022-10-15T00:05:44.304Z,2.20
2022-10-15T00:07:45.831Z,1.60
2022-10-15T00:09:49.945Z,2.07
2022-10-15T00:11:51.705Z,2.37
2022-10-15T00:13:55.948Z,2.10
2022-10-15T00:15:57.487Z,2.10
2022-10-15T00:17:59.021Z,1.80
2022-10-15T00:20:00.757Z,1.50
2022-10-15T00:24:08.747Z,1.87
2022-10-15T00:26:12.616Z,1.83
2022-10-15T00:28:14.113Z,1.90
2022-10-15T00:30:17.018Z,1.80
2022-10-15T00:32:18.773Z,1.90
2022-10-15T00:34:22.587Z,1.90
2022-10-15T00:36:26.547Z,1.77
2022-10-15T00:38:28.577Z,2.30
2022-10-15T00:40:30.074Z,2.67
2022-10-15T00:42:31.615Z,2.73
2022-10-15T00:44:49.756Z,2.50
2022-10-15T00:46:57.218Z,2.27
2022-10-15T00:51:05.517Z,2.30
2022-10-15T00:53:09.684Z,2.17
2022-10-15T00:55:14.904Z,1.93
2022-10-15T00:57:16.844Z,2.03
2022-10-15T00:59:23.073Z,2.00
2022-10-15T01:01:24.894Z,2.37
2022-10-15T01:03:27.961Z,2.47
2022-10-15T01:05:30.186Z,1.83
2022-10-15T01:07:31.822Z,1.77
2022-10-15T01:09:33.396Z,2.17
2022-10-15T01:11:41.369Z,1.97
2022-10-15T01:13:54.328Z,2.37
2022-10-15T01:15:59.446Z,2.00
2022-10-15T01:18:07.990Z,2.10
2022-10-15T01:20:54.026Z,2.60
2022-10-15T01:23:13.991Z,2.10
2022-10-15T01:25:30.599Z,2.13
2022-10-15T01:27:36.249Z,2.27
2022-10-15T01:30:07.152Z,2.20
2022-10-15T01:32:17.522Z,2.10
2022-10-15T01:34:24.587Z,2.23
2022-10-15T01:36:34.236Z,1.90
2022-10-15T01:38:46.244Z,1.80
2022-10-15T01:40:53.469Z,1.60
2022-10-15T01:42:58.899Z,2.47
2022-10-15T01:45:06.355Z,2.00
2022-10-15T01:47:14.014Z,1.83
2022-10-15T01:49:19.383Z,2.20
2022-10-15T01:51:22.986Z,1.60
2022-10-15T01:53:27.001Z,2.10
2022-10-15T01:55:31.854Z,2.10
2022-10-15T01:57:34.910Z,2.30
2022-10-15T01:59:36.888Z,2.10
2022-10-15T02:03:48.174Z,2.57
2022-10-15T02:05:56.483Z,3.43
2022-10-15T02:08:07.334Z,3.10
2022-10-15T02:10:17.901Z,3.53
2022-10-15T02:12:31.330Z,3.67
2022-10-15T02:14:37.809Z,3.30
2022-10-15T02:16:44.781Z,4.17
2022-10-15T02:18:57.555Z,4.50
2022-10-15T02:21:05.285Z,5.50
2022-10-15T02:23:13.240Z,4.00
2022-10-15T02:25:18.908Z,3.40
2022-10-15T02:27:21.226Z,3.50
2022-10-15T02:29:25.768Z,3.83
2022-10-15T02:31:30.207Z,3.13
2022-10-15T02:33:33.717Z,2.87
2022-10-15T02:35:37.876Z,2.60
2022-10-15T02:37:44.404Z,2.90
2022-10-15T02:39:46.023Z,3.27
2022-10-15T02:41:48.169Z,2.93
2022-10-15T02:43:50.004Z,2.57
2022-10-15T02:45:51.546Z,3.93
2022-10-15T02:47:53.031Z,3.57
2022-10-15T02:49:54.540Z,3.20
2022-10-15T02:51:57.510Z,2.93
2022-10-15T02:53:59.586Z,3.27
2022-10-15T02:56:01.151Z,2.93
2022-10-15T02:58:02.666Z,3.20
2022-10-15T03:00:05.410Z,2.80
2022-10-15T03:02:06.999Z,3.00
2022-10-15T03:04:08.442Z,2.50
2022-10-15T03:06:09.927Z,3.23
2022-10-15T03:08:14.927Z,3.00
2022-10-15T03:10:16.581Z,3.87
2022-10-15T03:12:18.342Z,4.83
2022-10-15T03:14:20.030Z,3.47
2022-10-15T03:16:21.570Z,3.57
2022-10-15T03:18:23.077Z,3.80
2022-10-15T03:20:24.967Z,3.80
2022-10-15T03:22:26.618Z,3.17
2022-10-15T03:24:29.500Z,2.57
2022-10-15T03:26:30.982Z,3.10
2022-10-15T03:28:32.817Z,3.10
2022-10-15T03:30:34.337Z,3.07
2022-10-15T03:32:36.465Z,5.20
2022-10-15T03:34:38.123Z,4.10
2022-10-15T03:36:39.874Z,4.10
2022-10-15T03:38:41.530Z,4.23
2022-10-15T03:40:45.275Z,3.17
2022-10-15T03:42:50.078Z,3.30
2022-10-15T03:44:51.583Z,3.60
2022-10-15T03:46:53.404Z,3.57
2022-10-15T03:48:55.045Z,3.60
2022-10-15T03:50:57.023Z,3.43
2022-10-15T03:52:58.495Z,2.80
2022-10-15T03:55:00.015Z,2.40
2022-10-15T03:57:03.113Z,2.80
2022-10-15T03:59:04.643Z,2.30
2022-10-15T04:01:08.760Z,1.83
2022-10-15T04:03:10.462Z,1.53
2022-10-15T04:05:12.054Z,1.40
2022-10-15T04:07:13.622Z,1.60
2022-10-15T04:09:15.117Z,1.20
2022-10-15T04:11:16.648Z,0.93
2022-10-15T04:13:20.240Z,1.70
2022-10-15T04:15:23.790Z,1.43
2022-10-15T04:17:25.382Z,1.20
2022-10-15T04:19:26.833Z,1.33
2022-10-15T04:21:28.334Z,1.13
2022-10-15T04:23:29.845Z,1.47
2022-10-15T04:25:31.322Z,2.60
2022-10-15T04:27:32.803Z,1.77
2022-10-15T04:29:35.656Z,1.87
2022-10-15T04:31:37.155Z,1.50
2022-10-15T04:33:38.760Z,1.10
2022-10-15T04:35:40.210Z,1.00
2022-10-15T04:37:41.801Z,0.77
2022-10-15T04:39:43.304Z,0.80
2022-10-15T04:41:48.030Z,0.90
2022-10-15T04:43:49.491Z,0.70
2022-10-15T04:45:55.916Z,0.90
2022-10-15T04:47:57.414Z,0.80
2022-10-15T04:49:58.971Z,0.93
2022-10-15T04:52:00.567Z,0.80
2022-10-15T04:54:02.088Z,0.80
2022-10-15T04:56:05.834Z,0.97
2022-10-15T04:58:07.379Z,1.10
2022-10-15T05:00:10.119Z,1.43
2022-10-15T05:02:13.053Z,2.07
2022-10-15T05:04:14.830Z,2.23
2022-10-15T05:06:18.624Z,2.00
2022-10-15T05:08:20.305Z,2.30
2022-10-15T05:10:21.837Z,2.20
2022-10-15T05:12:23.296Z,2.30
2022-10-15T05:14:25.056Z,2.10
2022-10-15T05:16:29.027Z,2.20
2022-10-15T05:18:31.865Z,2.30
2022-10-15T05:20:33.434Z,1.90
2022-10-15T05:22:34.978Z,2.03
2022-10-15T05:24:36.716Z,2.00
2022-10-15T05:26:41.322Z,1.80
2022-10-15T05:28:42.911Z,2.30
2022-10-15T05:30:44.573Z,1.80
2022-10-15T05:32:46.134Z,2.10
2022-10-15T05:34:49.618Z,2.43
2022-10-15T05:36:51.105Z,2.10
2022-10-15T05:38:55.265Z,2.90
2022-10-15T05:40:56.891Z,2.43
2022-10-15T05:42:58.370Z,2.40
2022-10-15T05:45:00.149Z,2.17
2022-10-15T05:47:01.733Z,1.80
2022-10-15T05:49:03.367Z,2.43
2022-10-15T05:51:08.644Z,3.03
2022-10-15T05:53:10.145Z,2.40
2022-10-15T05:55:11.604Z,2.40
2022-10-15T05:57:13.074Z,3.57
2022-10-15T05:59:14.662Z,3.40
2022-10-15T06:01:16.377Z,3.30
2022-10-15T06:03:17.864Z,3.40
2022-10-15T06:05:19.456Z,3.60
2022-10-15T06:07:22.560Z,3.10
2022-10-15T06:09:24.379Z,3.50
2022-10-15T06:11:26.083Z,3.10
2022-10-15T06:13:27.641Z,2.83
2022-10-15T06:15:29.157Z,4.43
2022-10-15T06:17:30.691Z,4.53
2022-10-15T06:19:32.367Z,4.03
2022-10-15T06:21:33.876Z,4.60
2022-10-15T06:23:36.795Z,4.50
2022-10-15T06:25:38.559Z,5.03
2022-10-15T06:27:40.159Z,4.60
2022-10-15T06:29:41.700Z,4.90
2022-10-15T06:31:43.289Z,3.93
2022-10-15T06:33:44.789Z,3.90
2022-10-15T06:35:46.315Z,4.83
2022-10-15T06:37:50.582Z,4.70
2022-10-15T06:39:53.441Z,4.87
2022-10-15T06:41:55.029Z,4.40
2022-10-15T06:43:56.513Z,4.40
2022-10-15T06:45:59.104Z,3.60
2022-10-15T06:48:00.692Z,3.80
2022-10-15T06:50:02.225Z,3.80
2022-10-15T06:52:04.103Z,3.50
2022-10-15T06:54:05.690Z,3.50
2022-10-15T06:56:08.761Z,4.20
2022-10-15T06:58:10.375Z,3.63
2022-10-15T07:00:13.699Z,2.90
2022-10-15T07:02:15.219Z,2.90
2022-10-15T07:04:16.795Z,2.20
2022-10-15T07:06:18.539Z,2.20
2022-10-15T07:08:20.014Z,2.30
2022-10-15T07:10:22.294Z,2.30
2022-10-15T07:12:25.896Z,2.03
2022-10-15T07:14:27.752Z,1.60
2022-10-15T07:16:29.254Z,1.57
2022-10-15T07:18:30.750Z,1.70
2022-10-15T07:20:32.274Z,1.80
2022-10-15T07:22:33.849Z,1.83
2022-10-15T07:24:35.422Z,2.60
2022-10-15T07:26:36.927Z,2.20
2022-10-15T07:28:41.234Z,2.20
2022-10-15T07:30:42.924Z,2.13
2022-10-15T07:32:46.388Z,2.43
2022-10-15T07:34:48.409Z,2.80
2022-10-15T07:36:49.948Z,3.17
2022-10-15T07:38:51.497Z,4.10
2022-10-15T07:40:55.464Z,3.13
2022-10-15T07:42:59.028Z,2.80
2022-10-15T07:45:01.908Z,2.80
2022-10-15T07:47:03.410Z,3.27
2022-10-15T07:49:04.979Z,2.93
2022-10-15T07:51:07.251Z,2.83
2022-10-15T07:53:09.821Z,2.13
2022-10-15T07:55:11.481Z,1.83
2022-10-15T07:57:13.122Z,1.43
2022-10-15T07:59:14.755Z,1.97
2022-10-15T08:01:21.750Z,1.90
2022-10-15T08:03:23.336Z,1.63
2022-10-15T08:05:28.145Z,1.37
2022-10-15T08:07:29.682Z,1.60
2022-10-15T08:09:31.395Z,1.60
2022-10-15T08:11:33.101Z,1.43
2022-10-15T08:13:37.486Z,1.87
2022-10-15T08:15:39.236Z,1.73
2022-10-15T08:17:42.309Z,1.80
2022-10-15T08:19:43.887Z,2.33
2022-10-15T08:21:47.604Z,1.40
2022-10-15T08:23:49.265Z,1.70
2022-10-15T08:25:50.973Z,1.77
2022-10-15T08:27:53.734Z,2.20
2022-10-15T08:29:55.262Z,2.07
2022-10-15T08:31:56.929Z,2.03
2022-10-15T08:34:01.187Z,2.13
2022-10-15T08:36:04.508Z,2.60
2022-10-15T08:38:06.365Z,2.93
2022-10-15T08:40:12.257Z,2.60
2022-10-15T08:42:18.863Z,3.90
2022-10-15T08:44:24.877Z,2.80
2022-10-15T08:46:33.989Z,3.40
2022-10-15T08:48:41.862Z,3.60
2022-10-15T08:50:53.225Z,3.50
2022-10-15T08:52:58.459Z,3.40
2022-10-15T08:55:01.483Z,3.20
2022-10-15T08:57:16.200Z,3.63
2022-10-15T08:59:33.427Z,3.33
2022-10-15T09:01:40.088Z,3.50
2022-10-15T09:03:54.894Z,3.30
2022-10-15T09:06:06.287Z,2.80
2022-10-15T09:08:17.833Z,3.43
2022-10-15T09:10:27.892Z,3.50
2022-10-15T09:12:42.435Z,3.50
2022-10-15T09:14:46.318Z,3.23
2022-10-15T09:16:49.991Z,3.57
2022-10-15T09:18:53.526Z,2.87
2022-10-15T09:20:56.823Z,3.63
2022-10-15T09:22:59.894Z,3.10
2022-10-15T09:25:13.796Z,3.30
2022-10-15T09:27:27.653Z,3.63
2022-10-15T09:29:34.464Z,3.50
2022-10-15T09:31:44.441Z,3.43
2022-10-15T09:33:50.474Z,3.40
2022-10-15T09:35:58.540Z,2.97
2022-10-15T09:38:12.819Z,3.20
2022-10-15T09:40:37.210Z,3.10
2022-10-15T09:42:41.683Z,2.77
2022-10-15T09:44:46.834Z,3.27
2022-10-15T09:46:50.252Z,3.23
2022-10-15T09:49:02.022Z,2.73
2022-10-15T09:51:11.782Z,2.90
2022-10-15T09:53:23.268Z,2.27
2022-10-15T09:55:41.765Z,2.17
2022-10-15T09:57:48.741Z,2.53
2022-10-15T09:59:54.444Z,1.90
2022-10-15T10:01:59.159Z,2.00
2022-10-15T10:04:13.358Z,2.00
2022-10-15T10:06:15.433Z,2.17
2022-10-15T10:08:21.719Z,2.07
2022-10-15T10:10:25.626Z,2.27
2022-10-15T10:12:30.686Z,1.87
2022-10-15T10:14:35.881Z,2.50
2022-10-15T10:17:08.229Z,2.23
2022-10-15T10:19:13.885Z,1.97
2022-10-15T10:21:23.522Z,2.50
2022-10-15T10:23:30.910Z,2.13
2022-10-15T10:25:37.804Z,1.90
2022-10-15T10:27:45.737Z,1.73
2022-10-15T10:29:56.929Z,1.73
2022-10-15T10:31:58.582Z,2.00
2022-10-15T10:34:02.431Z,2.00
2022-10-15T10:36:06.158Z,1.60
2022-10-15T10:38:19.146Z,1.93
2022-10-15T10:40:27.898Z,1.90
2022-10-15T10:42:34.196Z,2.00
2022-10-15T10:44:37.718Z,1.63
2022-10-15T10:46:39.492Z,2.00
2022-10-15T10:48:43.127Z,2.10
2022-10-15T10:50:44.800Z,2.00
2022-10-15T10:52:46.374Z,1.87
2022-10-15T10:54:51.816Z,1.70
2022-10-15T10:56:59.126Z,1.63
2022-10-15T10:59:10.582Z,1.80
2022-10-15T11:01:13.625Z,1.50
2022-10-15T11:03:23.276Z,1.10
2022-10-15T11:05:27.221Z,1.53
2022-10-15T11:07:39.819Z,1.37
2022-10-15T11:09:55.311Z,2.20
2022-10-15T11:12:08.105Z,1.80
2022-10-15T11:14:21.320Z,1.33
2022-10-15T11:16:34.610Z,1.83
2022-10-15T11:18:52.347Z,1.80
2022-10-15T11:21:05.865Z,1.57
2022-10-15T11:23:27.431Z,1.90
2022-10-15T11:25:40.067Z,1.80
2022-10-15T11:28:05.584Z,1.60
2022-10-15T11:30:26.947Z,1.43
2022-10-15T11:33:05.520Z,1.97
2022-10-15T11:35:40.986Z,1.70
2022-10-15T11:37:50.827Z,1.73
2022-10-15T11:40:06.176Z,1.87
2022-10-15T11:42:16.827Z,2.00
2022-10-15T11:44:38.706Z,1.50
2022-10-15T11:46:47.713Z,1.73
2022-10-15T11:48:59.920Z,1.47
2022-10-15T11:51:06.965Z,2.23
2022-10-15T11:53:51.024Z,2.10
2022-10-15T11:55:57.892Z,2.10
2022-10-15T11:58:06.285Z,1.80
2022-10-15T12:00:19.319Z,1.60
2022-10-15T12:02:28.429Z,2.43
2022-10-15T12:04:38.407Z,4.37
2022-10-15T12:06:45.181Z,2.83
2022-10-15T12:08:49.434Z,2.13
2022-10-15T12:11:14.427Z,1.93
2022-10-15T12:13:23.462Z,2.70
2022-10-15T12:15:35.350Z,2.90
2022-10-15T12:17:47.151Z,2.50
2022-10-15T12:19:53.564Z,3.13
2022-10-15T12:22:06.650Z,2.70
2022-10-15T12:24:56.171Z,2.00
2022-10-15T12:27:15.565Z,2.33
2022-10-15T12:29:22.095Z,2.00
2022-10-15T12:31:24.212Z,1.60
2022-10-15T12:33:32.435Z,1.57
2022-10-15T12:35:36.681Z,1.73
2022-10-15T12:37:38.445Z,2.87
2022-10-15T12:39:58.504Z,3.00
2022-10-15T12:42:01.566Z,2.87
2022-10-15T12:44:08.527Z,3.90
2022-10-15T12:46:11.728Z,2.80
2022-10-15T12:48:21.431Z,3.30
2022-10-15T12:50:25.898Z,4.00
2022-10-15T12:52:57.202Z,4.20
2022-10-15T12:55:20.103Z,2.80
2022-10-15T12:57:58.072Z,3.10
2022-10-15T13:00:01.142Z,3.27
2022-10-15T13:02:02.903Z,4.20
2022-10-15T13:04:04.536Z,4.77
2022-10-15T13:06:31.795Z,4.20
2022-10-15T13:08:34.309Z,4.03
2022-10-15T13:10:40.854Z,2.20
2022-10-15T13:12:42.668Z,2.07
2022-10-15T13:14:53.151Z,1.57
2022-10-15T13:16:56.712Z,1.93
2022-10-15T13:18:58.611Z,1.90
2022-10-15T13:23:30.168Z,1.40
2022-10-15T13:25:32.947Z,1.90
2022-10-15T13:27:37.797Z,1.80
2022-10-15T13:29:39.906Z,1.80
2022-10-15T13:31:43.645Z,1.63
2022-10-15T13:33:48.313Z,1.70
2022-10-15T13:35:50.284Z,1.70
2022-10-15T13:37:52.657Z,1.90
2022-10-15T13:39:54.403Z,1.60
2022-10-15T13:42:08.090Z,1.70
2022-10-15T13:44:21.241Z,1.67
2022-10-15T13:46:24.137Z,1.53
2022-10-15T13:48:29.413Z,1.87
2022-10-15T13:50:33.842Z,1.67
2022-10-15T13:52:41.097Z,2.47
2022-10-15T13:54:45.271Z,1.90
2022-10-15T13:56:52.709Z,1.97
2022-10-15T13:58:55.673Z,2.10
2022-10-15T14:01:00.224Z,1.93
2022-10-15T14:03:17.993Z,1.50
2022-10-15T14:05:24.121Z,1.73
2022-10-15T14:07:26.019Z,1.53
2022-10-15T14:09:31.553Z,2.20
2022-10-15T14:11:34.900Z,1.90
2022-10-15T14:13:44.449Z,2.40
2022-10-15T14:15:56.428Z,2.13
2022-10-15T14:17:58.172Z,2.37
2022-10-15T14:20:26.293Z,2.17
2022-10-15T14:22:29.096Z,2.13
2022-10-15T14:24:36.386Z,2.30
2022-10-15T14:26:38.124Z,1.90
2022-10-15T14:28:41.020Z,1.90
2022-10-15T14:30:42.909Z,1.80
2022-10-15T14:32:46.577Z,1.90
2022-10-15T14:34:51.737Z,2.20
2022-10-15T14:36:53.530Z,2.60
2022-10-15T14:39:26.182Z,2.20
2022-10-15T14:41:29.705Z,1.90
2022-10-15T14:43:33.759Z,1.67
2022-10-15T14:45:40.579Z,1.77
2022-10-15T14:47:47.563Z,1.87
2022-10-15T14:49:51.363Z,1.83
2022-10-15T14:51:55.636Z,1.20
2022-10-15T14:53:59.740Z,1.43
2022-10-15T14:56:06.936Z,1.80
2022-10-15T14:58:10.019Z,3.43
2022-10-15T15:00:17.407Z,2.47
2022-10-15T15:02:19.629Z,2.80
2022-10-15T15:04:37.187Z,1.87
2022-10-15T15:06:41.233Z,2.80
2022-10-15T15:08:42.898Z,2.00
2022-10-15T15:12:51.859Z,1.30
2022-10-15T15:14:54.145Z,2.03
2022-10-15T15:16:55.783Z,2.43
2022-10-15T15:18:57.405Z,2.10
2022-10-15T15:21:02.862Z,1.93
2022-10-15T15:23:04.627Z,1.70
2022-10-15T15:25:13.288Z,1.80
2022-10-15T15:27:23.215Z,1.50
2022-10-15T15:29:25.741Z,2.00
2022-10-15T15:31:27.302Z,2.30
2022-10-15T15:33:29.253Z,1.70
2022-10-15T15:35:36.866Z,1.80
2022-10-15T15:37:38.733Z,1.97
2022-10-15T15:39:40.264Z,1.60
2022-10-15T15:41:41.814Z,2.17
2022-10-15T15:43:45.203Z,1.77
2022-10-15T15:45:46.913Z,2.47
2022-10-15T15:47:48.837Z,2.10
2022-10-15T15:49:50.405Z,1.60
2022-10-15T15:51:51.934Z,1.77
2022-10-15T15:53:53.979Z,1.60
2022-10-15T15:55:55.509Z,2.00
2022-10-15T15:57:57.022Z,1.60
2022-10-15T16:00:00.011Z,1.40
2022-10-15T16:02:01.630Z,1.90
2022-10-15T16:04:03.232Z,1.90
2022-10-15T16:06:05.542Z,1.70
2022-10-15T16:08:08.682Z,1.63
2022-10-15T16:10:10.697Z,1.63
2022-10-15T16:12:12.276Z,1.60
2022-10-15T16:14:13.826Z,1.60
2022-10-15T16:16:16.749Z,2.00
2022-10-15T16:18:18.257Z,1.97
2022-10-15T16:20:21.747Z,2.10
2022-10-15T16:22:23.330Z,1.90
2022-10-15T16:24:24.875Z,2.03
2022-10-15T16:26:26.405Z,2.13
2022-10-15T16:28:28.024Z,1.90
2022-10-15T16:30:29.947Z,2.60
2022-10-15T16:32:32.913Z,2.17
2022-10-15T16:34:34.640Z,2.37
2022-10-15T16:36:36.209Z,2.43
2022-10-15T16:38:39.050Z,1.57
2022-10-15T16:40:40.643Z,2.30
2022-10-15T16:42:42.162Z,2.23
2022-10-15T16:44:43.717Z,2.27
2022-10-15T16:46:45.232Z,3.10
2022-10-15T16:48:52.578Z,3.00
2022-10-15T16:51:01.374Z,2.90
2022-10-15T16:53:02.893Z,2.53
2022-10-15T16:55:05.027Z,2.47
2022-10-15T16:57:06.527Z,2.63
2022-10-15T16:59:08.324Z,1.90
2022-10-15T17:01:12.234Z,2.20
2022-10-15T17:03:14.042Z,3.00
2022-10-15T17:05:17.149Z,2.70
2022-10-15T17:07:18.936Z,3.20
2022-10-15T17:09:20.470Z,3.00
2022-10-15T17:11:23.724Z,2.40
2022-10-15T17:13:25.306Z,3.40
2022-10-15T17:15:26.844Z,3.00
2022-10-15T17:17:28.543Z,2.80
2022-10-15T17:19:33.278Z,2.50
2022-10-15T17:21:37.856Z,3.20
2022-10-15T17:23:42.287Z,2.53
2022-10-15T17:25:43.854Z,2.30
2022-10-15T17:27:45.475Z,2.97
2022-10-15T17:29:47.057Z,2.90
2022-10-15T17:31:49.730Z,3.53
2022-10-15T17:33:55.288Z,3.87
2022-10-15T17:35:56.797Z,7.40
2022-10-15T17:37:59.704Z,8.20
2022-10-15T17:40:01.556Z,15.77
2022-10-15T17:42:03.456Z,4.47
2022-10-15T17:44:05.312Z,2.10
2022-10-15T17:46:14.130Z,2.37
2022-10-15T17:48:15.770Z,2.43
2022-10-15T17:50:17.478Z,1.80
2022-10-15T17:52:19.097Z,2.93
2022-10-15T17:54:22.039Z,2.40
2022-10-15T17:56:26.059Z,2.97
2022-10-15T17:58:27.612Z,2.23
2022-10-15T18:00:29.265Z,2.30
2022-10-15T18:02:30.922Z,2.47
2022-10-15T18:04:32.545Z,3.17
2022-10-15T18:06:34.775Z,3.10
2022-10-15T18:08:36.762Z,2.60
2022-10-15T18:10:39.740Z,3.03
2022-10-15T18:12:41.405Z,2.73
2022-10-15T18:14:43.154Z,2.00
2022-10-15T18:16:44.789Z,2.80
2022-10-15T18:18:46.692Z,2.23
2022-10-15T18:20:48.244Z,2.40
2022-10-15T18:22:49.917Z,1.90
2022-10-15T18:24:51.519Z,2.53
2022-10-15T18:26:54.650Z,2.33
2022-10-15T18:28:56.290Z,2.03
2022-10-15T18:31:01.597Z,2.10
2022-10-15T18:33:03.336Z,2.23
2022-10-15T18:35:05.757Z,2.03
2022-10-15T18:37:07.354Z,2.50
2022-10-15T18:39:08.979Z,2.40
2022-10-15T18:41:15.656Z,2.83
2022-10-15T18:43:19.542Z,2.20
2022-10-15T18:45:21.336Z,2.40
2022-10-15T18:47:23.003Z,2.50
2022-10-15T18:49:24.500Z,2.57
2022-10-15T18:51:26.990Z,2.37
2022-10-15T18:53:28.787Z,2.17
2022-10-15T18:55:30.450Z,1.90
2022-10-15T18:57:31.996Z,2.03
2022-10-15T18:59:34.890Z,2.27
2022-10-15T19:01:38.193Z,3.20
2022-10-15T19:03:40.520Z,2.37
2022-10-15T19:05:42.227Z,2.03
2022-10-15T19:07:43.758Z,2.97
2022-10-15T19:09:45.388Z,2.90
2022-10-15T19:11:49.362Z,2.30
2022-10-15T19:13:56.279Z,2.30
2022-10-15T19:16:04.425Z,1.77
2022-10-15T19:18:06.092Z,1.87
2022-10-15T19:20:08.708Z,2.20
2022-10-15T19:22:10.421Z,1.90
2022-10-15T19:24:12.027Z,1.90
2022-10-15T19:26:14.378Z,2.17
2022-10-15T19:28:18.566Z,1.40
2022-10-15T19:30:20.178Z,1.93
2022-10-15T19:32:23.112Z,1.97
2022-10-15T19:34:24.698Z,2.10
2022-10-15T19:36:27.662Z,1.97
2022-10-15T19:38:29.396Z,2.13
2022-10-15T19:40:31.049Z,2.70
2022-10-15T19:42:32.668Z,2.37
2022-10-15T19:44:34.297Z,2.10
2022-10-15T19:46:37.004Z,2.10
2022-10-15T19:48:40.021Z,2.27
2022-10-15T19:50:42.989Z,2.10
2022-10-15T19:52:44.942Z,2.30
2022-10-15T19:54:46.534Z,2.50
2022-10-15T19:56:48.450Z,2.80
2022-10-15T19:58:54.829Z,2.47
2022-10-15T20:00:56.723Z,2.67
2022-10-15T20:02:58.251Z,2.47
2022-10-15T20:05:01.323Z,2.47
2022-10-15T20:07:03.241Z,2.53
2022-10-15T20:09:04.894Z,3.07
2022-10-15T20:11:07.384Z,2.03
2022-10-15T20:13:09.135Z,3.57
2022-10-15T20:15:11.160Z,4.87
2022-10-15T20:17:13.140Z,3.07
2022-10-15T20:19:14.698Z,2.57
2022-10-15T20:21:17.717Z,2.50
2022-10-15T20:23:19.273Z,2.67
2022-10-15T20:25:20.775Z,2.20
2022-10-15T20:27:22.282Z,2.20
2022-10-15T20:29:24.956Z,2.73
2022-10-15T20:31:26.610Z,2.23
2022-10-15T20:33:28.135Z,2.37
2022-10-15T20:35:32.596Z,2.70
2022-10-15T20:37:35.548Z,2.80
2022-10-15T20:39:37.093Z,3.10
2022-10-15T20:41:38.643Z,2.70
2022-10-15T20:43:40.954Z,2.80
2022-10-15T20:45:44.827Z,2.40
2022-10-15T20:47:50.977Z,3.10
2022-10-15T20:49:53.962Z,2.90
2022-10-15T20:51:56.356Z,2.90
2022-10-15T20:53:59.769Z,3.00
2022-10-15T20:56:01.371Z,3.50
2022-10-15T20:58:03.311Z,2.80
2022-10-15T21:00:07.893Z,2.80
2022-10-15T21:02:09.458Z,2.90
2022-10-15T21:04:11.205Z,3.30
2022-10-15T21:06:12.772Z,3.10
2022-10-15T21:08:14.414Z,3.07
2022-10-15T21:10:17.602Z,2.83
2022-10-15T21:12:19.175Z,3.40
2022-10-15T21:14:22.143Z,3.03
2022-10-15T21:16:26.009Z,2.90
2022-10-15T21:18:31.017Z,2.80
2022-10-15T21:20:33.080Z,2.30
2022-10-15T21:22:35.223Z,3.10
2022-10-15T21:24:37.209Z,2.90
2022-10-15T21:26:40.066Z,2.20
2022-10-15T21:28:42.051Z,2.53
2022-10-15T21:30:43.784Z,2.80
2022-10-15T21:32:45.452Z,2.60
2022-10-15T21:34:47.253Z,2.57
2022-10-15T21:36:48.976Z,2.80
2022-10-15T21:38:52.902Z,2.60
2022-10-15T21:40:54.763Z,2.60
2022-10-15T21:42:58.507Z,2.83
2022-10-15T21:45:00.402Z,2.47
2022-10-15T21:47:01.933Z,2.63
2022-10-15T21:49:03.609Z,2.33
2022-10-15T21:51:08.403Z,2.70
2022-10-15T21:53:09.956Z,3.07
2022-10-15T21:55:11.608Z,2.90
2022-10-15T21:57:13.240Z,3.40
2022-10-15T21:59:16.168Z,2.80
2022-10-15T22:01:19.714Z,3.30
2022-10-15T22:03:21.851Z,3.60
2022-10-15T22:05:23.451Z,3.00
2022-10-15T22:07:25.566Z,2.80
2022-10-15T22:09:27.326Z,3.03
2022-10-15T22:11:30.772Z,2.60
2022-10-15T22:13:32.322Z,2.90
2022-10-15T22:15:35.402Z,2.23
2022-10-15T22:17:36.887Z,2.70
2022-10-15T22:19:38.459Z,2.80
2022-10-15T22:21:40.131Z,3.73
2022-10-15T22:23:42.504Z,2.73
2022-10-15T22:25:44.147Z,3.10
2022-10-15T22:27:45.809Z,2.47
2022-10-15T22:29:47.404Z,2.73
2022-10-15T22:31:51.741Z,3.03
2022-10-15T22:33:53.427Z,2.67
2022-10-15T22:35:54.929Z,2.50
2022-10-15T22:37:56.435Z,2.40
2022-10-15T22:39:57.981Z,2.67
2022-10-15T22:41:59.615Z,2.60
2022-10-15T22:44:01.658Z,2.73
2022-10-15T22:46:03.840Z,2.60
2022-10-15T22:48:06.786Z,2.50
2022-10-15T22:50:08.956Z,2.50
2022-10-15T22:52:10.470Z,2.13
2022-10-15T22:54:11.941Z,3.20
2022-10-15T22:56:16.079Z,2.97
2022-10-15T22:58:17.571Z,3.10
2022-10-15T23:00:19.802Z,2.50
2022-10-15T23:02:21.334Z,2.50
2022-10-15T23:04:26.572Z,2.63
2022-10-15T23:06:29.339Z,2.30
2022-10-15T23:08:31.385Z,3.50
2022-10-15T23:10:32.970Z,2.67
2022-10-15T23:12:35.958Z,2.67
2022-10-15T23:14:37.734Z,2.80
2022-10-15T23:16:41.226Z,3.30
2022-10-15T23:18:44.083Z,2.17
2022-10-15T23:20:47.003Z,3.23
2022-10-15T23:22:48.505Z,2.50
2022-10-15T23:24:50.064Z,2.83
2022-10-15T23:26:51.973Z,2.60
2022-10-15T23:28:56.912Z,3.17
2022-10-15T23:30:58.495Z,2.27
2022-10-15T23:33:01.682Z,2.73
2022-10-15T23:35:03.729Z,2.60
2022-10-15T23:37:06.599Z,2.60
2022-10-15T23:39:09.697Z,2.43
2022-10-15T23:41:11.766Z,2.90
2022-10-15T23:43:13.351Z,2.40
2022-10-15T23:45:15.088Z,2.70
2022-10-15T23:47:16.654Z,2.93
2022-10-15T23:49:18.604Z,3.20
2022-10-15T23:51:22.432Z,2.30
2022-10-15T23:53:25.358Z,2.53
2022-10-15T23:55:26.909Z,3.03
2022-10-15T23:57:28.720Z,2.90
2022-10-15T23:59:30.538Z,2.70
